ARG1984 SAZN-SAVT
Flight info
| Callsign | ARG1984 |
|---|---|
| Flight time | 0h 46m |
| Altitude | 31000 |
| Route | ILTOS1G ILTOS DCT OTADO UT106 VUNSO DCT ORAMU ORAMU3U |
| Aircraft | B738/M-SDE2E3FGHIRWXY/LB1 |
Departure
| Time | 2026-05-05 23:10 |
|---|---|
| Airport | Presidente Perón International Airport (SAZN) |
Arrival
| Time | 2026-05-05 23:56 |
|---|---|
| Airport | Almirante Marco Andres Zar Airport (SAVT) |
| Time | Latitude | Longitude | Altitude | Speed | Heading |
|---|---|---|---|---|---|
| 2026-05-05 22:47 | -38.95149 | -68.14112 | 903 ft | 0 kts | 180° |
| 2026-05-05 22:49 | -38.95154 | -68.14113 | 903 ft | 0 kts | 180° |
| 2026-05-05 22:59 | -38.95153 | -68.14113 | 903 ft | 2 kts | 180° |
| 2026-05-05 23:00 | -38.95104 | -68.14109 | 903 ft | 4 kts | 212° |
| 2026-05-05 23:00 | -38.95095 | -68.14091 | 903 ft | 4 kts | 271° |
| 2026-05-05 23:00 | -38.95096 | -68.14059 | 903 ft | 2 kts | 271° |
| 2026-05-05 23:01 | -38.95096 | -68.14057 | 903 ft | 0 kts | 271° |
| 2026-05-05 23:03 | -38.95096 | -68.14059 | 903 ft | 1 kts | 271° |
| 2026-05-05 23:03 | -38.95096 | -68.14074 | 903 ft | 3 kts | 271° |
| 2026-05-05 23:03 | -38.95095 | -68.14117 | 903 ft | 8 kts | 270° |
| 2026-05-05 23:03 | -38.95094 | -68.14235 | 903 ft | 15 kts | 271° |
| 2026-05-05 23:04 | -38.95093 | -68.14364 | 903 ft | 14 kts | 270° |
| 2026-05-05 23:04 | -38.95093 | -68.14492 | 903 ft | 14 kts | 270° |
| 2026-05-05 23:04 | -38.95093 | -68.14573 | 902 ft | 13 kts | 270° |
| 2026-05-05 23:04 | -38.95092 | -68.14690 | 903 ft | 13 kts | 270° |
| 2026-05-05 23:05 | -38.95092 | -68.14803 | 903 ft | 13 kts | 270° |
| 2026-05-05 23:05 | -38.95057 | -68.14936 | 902 ft | 12 kts | 316° |
| 2026-05-05 23:05 | -38.95016 | -68.14986 | 903 ft | 12 kts | 316° |
| 2026-05-05 23:05 | -38.94955 | -68.15060 | 901 ft | 13 kts | 316° |
| 2026-05-05 23:06 | -38.94903 | -68.15166 | 901 ft | 16 kts | 278° |
| 2026-05-05 23:06 | -38.94901 | -68.15352 | 902 ft | 26 kts | 270° |
| 2026-05-05 23:06 | -38.94901 | -68.15595 | 904 ft | 27 kts | 270° |
| 2026-05-05 23:06 | -38.94900 | -68.15825 | 904 ft | 25 kts | 270° |
| 2026-05-05 23:07 | -38.94900 | -68.16041 | 905 ft | 23 kts | 270° |
| 2026-05-05 23:07 | -38.94899 | -68.16243 | 902 ft | 22 kts | 270° |
| 2026-05-05 23:07 | -38.94899 | -68.16443 | 902 ft | 23 kts | 270° |
| 2026-05-05 23:07 | -38.94899 | -68.16666 | 900 ft | 27 kts | 270° |
| 2026-05-05 23:08 | -38.94905 | -68.16897 | 904 ft | 19 kts | 247° |
| 2026-05-05 23:08 | -38.94917 | -68.17020 | 904 ft | 10 kts | 342° |
| 2026-05-05 23:08 | -38.94898 | -68.16973 | 901 ft | 0 kts | 89° |
| 2026-05-05 23:09 | -38.94898 | -68.16972 | 901 ft | 1 kts | 89° |
| 2026-05-05 23:09 | -38.94898 | -68.16929 | 901 ft | 26 kts | 90° |
| 2026-05-05 23:09 | -38.94899 | -68.16356 | 902 ft | 100 kts | 89° |
| 2026-05-05 23:10 | -38.94902 | -68.15187 | 916 ft | 158 kts | 91° |
| 2026-05-05 23:10 | -38.94896 | -68.13747 | 1578 ft | 164 kts | 89° |
| 2026-05-05 23:10 | -38.94899 | -68.12270 | 2428 ft | 166 kts | 91° |
| 2026-05-05 23:10 | -38.95349 | -68.10766 | 2781 ft | 207 kts | 128° |
| 2026-05-05 23:11 | -38.96744 | -68.09919 | 3052 ft | 243 kts | 172° |
| 2026-05-05 23:11 | -38.98497 | -68.10119 | 3464 ft | 262 kts | 188° |
| 2026-05-05 23:11 | -39.00356 | -68.10430 | 3947 ft | 279 kts | 182° |
| 2026-05-05 23:11 | -39.02335 | -68.10530 | 4634 ft | 290 kts | 181° |
| 2026-05-05 23:12 | -39.04356 | -68.10565 | 5593 ft | 288 kts | 181° |
| 2026-05-05 23:12 | -39.06355 | -68.10583 | 6621 ft | 285 kts | 183° |
| 2026-05-05 23:12 | -39.08349 | -68.10599 | 7458 ft | 289 kts | 185° |
| 2026-05-05 23:12 | -39.10385 | -68.10621 | 8182 ft | 296 kts | 186° |
| 2026-05-05 23:13 | -39.12433 | -68.10645 | 8953 ft | 301 kts | 187° |
| 2026-05-05 23:13 | -39.14540 | -68.10670 | 9788 ft | 304 kts | 189° |
| 2026-05-05 23:13 | -39.16660 | -68.10698 | 10429 ft | 314 kts | 189° |
| 2026-05-05 23:13 | -39.18934 | -68.10739 | 10614 ft | 339 kts | 189° |
| 2026-05-05 23:14 | -39.21349 | -68.10778 | 11035 ft | 354 kts | 188° |
| 2026-05-05 23:14 | -39.23836 | -68.10807 | 11747 ft | 359 kts | 188° |
| 2026-05-05 23:14 | -39.26329 | -68.10828 | 12674 ft | 357 kts | 189° |
| 2026-05-05 23:14 | -39.28822 | -68.10854 | 13419 ft | 361 kts | 190° |
| 2026-05-05 23:15 | -39.31359 | -68.10886 | 14079 ft | 366 kts | 190° |
| 2026-05-05 23:15 | -39.33925 | -68.10919 | 14717 ft | 371 kts | 190° |
| 2026-05-05 23:15 | -39.36524 | -68.10952 | 15364 ft | 376 kts | 191° |
| 2026-05-05 23:15 | -39.39155 | -68.10986 | 15996 ft | 380 kts | 191° |
| 2026-05-05 23:16 | -39.41817 | -68.11021 | 16638 ft | 385 kts | 191° |
| 2026-05-05 23:16 | -39.44537 | -68.10748 | 17240 ft | 408 kts | 174° |
| 2026-05-05 23:16 | -39.47189 | -68.09188 | 17855 ft | 431 kts | 152° |
| 2026-05-05 23:16 | -39.49633 | -68.06979 | 18478 ft | 436 kts | 150° |
| 2026-05-05 23:17 | -39.52101 | -68.04663 | 18986 ft | 441 kts | 150° |
| 2026-05-05 23:17 | -39.54588 | -68.02305 | 19535 ft | 444 kts | 150° |
| 2026-05-05 23:17 | -39.57087 | -67.99942 | 20119 ft | 447 kts | 150° |
| 2026-05-05 23:17 | -39.59612 | -67.97572 | 20690 ft | 449 kts | 150° |
| 2026-05-05 23:18 | -39.62160 | -67.95195 | 21236 ft | 452 kts | 150° |
| 2026-05-05 23:18 | -39.64717 | -67.92820 | 21944 ft | 451 kts | 150° |
| 2026-05-05 23:18 | -39.67266 | -67.90457 | 22571 ft | 452 kts | 150° |
| 2026-05-05 23:18 | -39.69841 | -67.88073 | 23007 ft | 457 kts | 150° |
| 2026-05-05 23:19 | -39.72443 | -67.85667 | 23443 ft | 462 kts | 150° |
| 2026-05-05 23:19 | -39.75073 | -67.83231 | 23860 ft | 465 kts | 150° |
| 2026-05-05 23:19 | -39.77708 | -67.80785 | 24304 ft | 467 kts | 150° |
| 2026-05-05 23:19 | -39.80358 | -67.78320 | 24774 ft | 469 kts | 150° |
| 2026-05-05 23:20 | -39.83015 | -67.75847 | 25266 ft | 469 kts | 149° |
| 2026-05-05 23:20 | -39.85666 | -67.73376 | 25720 ft | 470 kts | 149° |
| 2026-05-05 23:20 | -39.88337 | -67.70885 | 26090 ft | 474 kts | 149° |
| 2026-05-05 23:20 | -39.91021 | -67.68381 | 26450 ft | 477 kts | 149° |
| 2026-05-05 23:21 | -39.93729 | -67.65853 | 26833 ft | 480 kts | 149° |
| 2026-05-05 23:21 | -39.96454 | -67.63305 | 27222 ft | 482 kts | 149° |
| 2026-05-05 23:21 | -39.99182 | -67.60752 | 27645 ft | 484 kts | 149° |
| 2026-05-05 23:21 | -40.01918 | -67.58186 | 28087 ft | 484 kts | 148° |
| 2026-05-05 23:22 | -40.04656 | -67.55618 | 28451 ft | 486 kts | 148° |
| 2026-05-05 23:22 | -40.07411 | -67.53031 | 28807 ft | 488 kts | 149° |
| 2026-05-05 23:22 | -40.10166 | -67.50442 | 29228 ft | 489 kts | 149° |
| 2026-05-05 23:22 | -40.12888 | -67.47880 | 29719 ft | 487 kts | 149° |
| 2026-05-05 23:23 | -40.15630 | -67.45296 | 30226 ft | 485 kts | 149° |
| 2026-05-05 23:23 | -40.18369 | -67.42713 | 30615 ft | 485 kts | 149° |
| 2026-05-05 23:23 | -40.21107 | -67.40130 | 30928 ft | 486 kts | 149° |
| 2026-05-05 23:23 | -40.23864 | -67.37528 | 30931 ft | 492 kts | 149° |
| 2026-05-05 23:24 | -40.29406 | -67.32284 | 30930 ft | 488 kts | 149° |
| 2026-05-05 23:24 | -40.34883 | -67.27089 | 30965 ft | 488 kts | 149° |
| 2026-05-05 23:25 | -40.40474 | -67.21823 | 30958 ft | 500 kts | 151° |
| 2026-05-05 23:25 | -40.46587 | -67.17405 | 30950 ft | 506 kts | 159° |
| 2026-05-05 23:26 | -40.52967 | -67.13289 | 30961 ft | 517 kts | 159° |
| 2026-05-05 23:26 | -40.59457 | -67.09022 | 30953 ft | 526 kts | 159° |
| 2026-05-05 23:27 | -40.66005 | -67.04607 | 30939 ft | 529 kts | 158° |
| 2026-05-05 23:27 | -40.72552 | -67.00154 | 30953 ft | 529 kts | 158° |
| 2026-05-05 23:28 | -40.79089 | -66.95709 | 30942 ft | 529 kts | 158° |
| 2026-05-05 23:28 | -40.85630 | -66.91258 | 30947 ft | 528 kts | 158° |
| 2026-05-05 23:29 | -40.92163 | -66.86805 | 30944 ft | 528 kts | 159° |
| 2026-05-05 23:29 | -40.98693 | -66.82341 | 30952 ft | 528 kts | 159° |
| 2026-05-05 23:30 | -41.05208 | -66.77882 | 30968 ft | 528 kts | 159° |
| 2026-05-05 23:30 | -41.11699 | -66.73448 | 30960 ft | 528 kts | 159° |
| 2026-05-05 23:31 | -41.18230 | -66.68980 | 30952 ft | 528 kts | 159° |
| 2026-05-05 23:31 | -41.24765 | -66.64496 | 30952 ft | 529 kts | 159° |
| 2026-05-05 23:32 | -41.31304 | -66.59997 | 30948 ft | 530 kts | 158° |
| 2026-05-05 23:32 | -41.37857 | -66.55478 | 30954 ft | 530 kts | 159° |
| 2026-05-05 23:33 | -41.44404 | -66.50952 | 30940 ft | 531 kts | 159° |
| 2026-05-05 23:33 | -41.50920 | -66.46438 | 30940 ft | 531 kts | 159° |
| 2026-05-05 23:34 | -41.57471 | -66.41889 | 30951 ft | 530 kts | 158° |
| 2026-05-05 23:34 | -41.60754 | -66.39606 | 30744 ft | 532 kts | 158° |
| 2026-05-05 23:34 | -41.64026 | -66.37328 | 30350 ft | 529 kts | 158° |
| 2026-05-05 23:35 | -41.67283 | -66.35055 | 29839 ft | 528 kts | 158° |
| 2026-05-05 23:35 | -41.70555 | -66.32829 | 29229 ft | 526 kts | 162° |
| 2026-05-05 23:35 | -41.73922 | -66.30972 | 28404 ft | 520 kts | 165° |
| 2026-05-05 23:35 | -41.77283 | -66.29210 | 27475 ft | 519 kts | 165° |
| 2026-05-05 23:36 | -41.80654 | -66.27474 | 26541 ft | 518 kts | 165° |
| 2026-05-05 23:36 | -41.84019 | -66.25751 | 25549 ft | 518 kts | 165° |
| 2026-05-05 23:36 | -41.87352 | -66.24043 | 24721 ft | 515 kts | 165° |
| 2026-05-05 23:36 | -41.90670 | -66.22330 | 24153 ft | 507 kts | 165° |
| 2026-05-05 23:37 | -41.93938 | -66.20633 | 23568 ft | 499 kts | 165° |
| 2026-05-05 23:37 | -41.97156 | -66.18957 | 22816 ft | 493 kts | 165° |
| 2026-05-05 23:37 | -42.00335 | -66.17300 | 22086 ft | 487 kts | 164° |
| 2026-05-05 23:37 | -42.03471 | -66.15663 | 21398 ft | 480 kts | 164° |
| 2026-05-05 23:38 | -42.06561 | -66.14049 | 20742 ft | 474 kts | 164° |
| 2026-05-05 23:38 | -42.09581 | -66.12470 | 20085 ft | 468 kts | 164° |
| 2026-05-05 23:38 | -42.12593 | -66.10894 | 19429 ft | 462 kts | 164° |
| 2026-05-05 23:38 | -42.15578 | -66.09332 | 18792 ft | 456 kts | 163° |
| 2026-05-05 23:39 | -42.18519 | -66.07790 | 18200 ft | 450 kts | 163° |
| 2026-05-05 23:39 | -42.21410 | -66.06272 | 17705 ft | 441 kts | 163° |
| 2026-05-05 23:39 | -42.24245 | -66.04782 | 17259 ft | 433 kts | 163° |
| 2026-05-05 23:39 | -42.27049 | -66.03309 | 16819 ft | 433 kts | 163° |
| 2026-05-05 23:40 | -42.29864 | -66.01832 | 16384 ft | 434 kts | 163° |
| 2026-05-05 23:40 | -42.32670 | -66.00357 | 15944 ft | 431 kts | 163° |
| 2026-05-05 23:40 | -42.35447 | -65.98893 | 15520 ft | 427 kts | 163° |
| 2026-05-05 23:40 | -42.38202 | -65.97438 | 15103 ft | 424 kts | 162° |
| 2026-05-05 23:41 | -42.40943 | -65.95989 | 14678 ft | 421 kts | 162° |
| 2026-05-05 23:41 | -42.43666 | -65.94550 | 14271 ft | 419 kts | 162° |
| 2026-05-05 23:41 | -42.46372 | -65.93117 | 13863 ft | 417 kts | 162° |
| 2026-05-05 23:41 | -42.49063 | -65.91692 | 13418 ft | 415 kts | 162° |
| 2026-05-05 23:42 | -42.51743 | -65.90271 | 12974 ft | 412 kts | 162° |
| 2026-05-05 23:42 | -42.54401 | -65.88859 | 12566 ft | 409 kts | 162° |
| 2026-05-05 23:42 | -42.57038 | -65.87458 | 12169 ft | 406 kts | 162° |
| 2026-05-05 23:42 | -42.59662 | -65.86062 | 11756 ft | 403 kts | 162° |
| 2026-05-05 23:43 | -42.62226 | -65.84697 | 11356 ft | 400 kts | 162° |
| 2026-05-05 23:43 | -42.64796 | -65.83327 | 10824 ft | 396 kts | 162° |
| 2026-05-05 23:43 | -42.67358 | -65.81962 | 10213 ft | 395 kts | 161° |
| 2026-05-05 23:43 | -42.69916 | -65.80597 | 9515 ft | 392 kts | 161° |
| 2026-05-05 23:44 | -42.72451 | -65.79244 | 8810 ft | 389 kts | 161° |
| 2026-05-05 23:44 | -42.74964 | -65.77901 | 8118 ft | 387 kts | 160° |
| 2026-05-05 23:44 | -42.77455 | -65.76569 | 7654 ft | 379 kts | 160° |
| 2026-05-05 23:44 | -42.79829 | -65.75295 | 7719 ft | 356 kts | 160° |
| 2026-05-05 23:45 | -42.82076 | -65.74088 | 7742 ft | 338 kts | 160° |
| 2026-05-05 23:45 | -42.84205 | -65.72944 | 7771 ft | 321 kts | 160° |
| 2026-05-05 23:45 | -42.86217 | -65.71863 | 7775 ft | 300 kts | 160° |
| 2026-05-05 23:45 | -42.88092 | -65.70854 | 7783 ft | 281 kts | 160° |
| 2026-05-05 23:46 | -42.89902 | -65.69882 | 7804 ft | 278 kts | 161° |
| 2026-05-05 23:46 | -42.91696 | -65.68920 | 7810 ft | 278 kts | 161° |
| 2026-05-05 23:46 | -42.93495 | -65.67954 | 7824 ft | 278 kts | 161° |
| 2026-05-05 23:46 | -42.95299 | -65.66984 | 7809 ft | 279 kts | 161° |
| 2026-05-05 23:47 | -42.97105 | -65.66012 | 7805 ft | 278 kts | 160° |
| 2026-05-05 23:47 | -42.98925 | -65.65032 | 7208 ft | 288 kts | 160° |
| 2026-05-05 23:47 | -43.00801 | -65.64022 | 6588 ft | 291 kts | 159° |
| 2026-05-05 23:47 | -43.02696 | -65.62998 | 5942 ft | 295 kts | 159° |
| 2026-05-05 23:48 | -43.04589 | -65.61974 | 5643 ft | 284 kts | 159° |
| 2026-05-05 23:48 | -43.06397 | -65.60996 | 5389 ft | 273 kts | 158° |
| 2026-05-05 23:48 | -43.08131 | -65.60057 | 5142 ft | 264 kts | 159° |
| 2026-05-05 23:48 | -43.09823 | -65.59141 | 4942 ft | 260 kts | 160° |
| 2026-05-05 23:49 | -43.11498 | -65.58232 | 4680 ft | 257 kts | 160° |
| 2026-05-05 23:49 | -43.13124 | -65.57351 | 4540 ft | 244 kts | 160° |
| 2026-05-05 23:49 | -43.14677 | -65.56508 | 4441 ft | 238 kts | 160° |
| 2026-05-05 23:49 | -43.16213 | -65.55675 | 4352 ft | 237 kts | 160° |
| 2026-05-05 23:50 | -43.17749 | -65.54842 | 4267 ft | 238 kts | 160° |
| 2026-05-05 23:50 | -43.19287 | -65.54008 | 4169 ft | 238 kts | 160° |
| 2026-05-05 23:50 | -43.20812 | -65.53204 | 3932 ft | 229 kts | 161° |
| 2026-05-05 23:50 | -43.22246 | -65.52466 | 3713 ft | 216 kts | 160° |
| 2026-05-05 23:51 | -43.23607 | -65.51767 | 3536 ft | 201 kts | 160° |
| 2026-05-05 23:51 | -43.24877 | -65.51113 | 3370 ft | 190 kts | 160° |
| 2026-05-05 23:51 | -43.26077 | -65.50420 | 3176 ft | 186 kts | 145° |
| 2026-05-05 23:51 | -43.26784 | -65.49015 | 3024 ft | 181 kts | 99° |
| 2026-05-05 23:52 | -43.26673 | -65.47304 | 2874 ft | 184 kts | 71° |
| 2026-05-05 23:52 | -43.26390 | -65.46201 | 2758 ft | 186 kts | 68° |
| 2026-05-05 23:52 | -43.25778 | -65.44017 | 2461 ft | 180 kts | 67° |
| 2026-05-05 23:52 | -43.25481 | -65.42962 | 2293 ft | 178 kts | 67° |
| 2026-05-05 23:53 | -43.25050 | -65.41422 | 2066 ft | 167 kts | 67° |
| 2026-05-05 23:53 | -43.24645 | -65.39967 | 1879 ft | 157 kts | 67° |
| 2026-05-05 23:53 | -43.24260 | -65.38591 | 1680 ft | 155 kts | 66° |
| 2026-05-05 23:53 | -43.23882 | -65.37234 | 1453 ft | 151 kts | 66° |
| 2026-05-05 23:54 | -43.23508 | -65.35902 | 1232 ft | 149 kts | 66° |
| 2026-05-05 23:54 | -43.23138 | -65.34587 | 1015 ft | 147 kts | 67° |
| 2026-05-05 23:54 | -43.22768 | -65.33276 | 825 ft | 147 kts | 68° |
| 2026-05-05 23:54 | -43.22411 | -65.31974 | 665 ft | 145 kts | 69° |
| 2026-05-05 23:55 | -43.22056 | -65.30682 | 515 ft | 145 kts | 68° |
| 2026-05-05 23:55 | -43.21701 | -65.29398 | 303 ft | 144 kts | 68° |
| 2026-05-05 23:55 | -43.21345 | -65.28114 | 124 ft | 139 kts | 68° |
| 2026-05-05 23:55 | -43.21043 | -65.27020 | 117 ft | 96 kts | 69° |
| 2026-05-05 23:56 | -43.20873 | -65.26408 | 113 ft | 55 kts | 69° |
| 2026-05-05 23:56 | -43.20803 | -65.26211 | 115 ft | 7 kts | 65° |
| 2026-05-05 23:56 | -43.20816 | -65.26200 | 115 ft | 3 kts | 209° |
| 2026-05-05 23:56 | -43.20846 | -65.26305 | 115 ft | 22 kts | 249° |
| 2026-05-05 23:57 | -43.20902 | -65.26506 | 116 ft | 23 kts | 249° |
| 2026-05-05 23:57 | -43.20957 | -65.26705 | 116 ft | 22 kts | 249° |
| 2026-05-05 23:57 | -43.21012 | -65.26905 | 116 ft | 24 kts | 249° |
| 2026-05-05 23:57 | -43.21079 | -65.27147 | 115 ft | 29 kts | 249° |
| 2026-05-05 23:58 | -43.21149 | -65.27401 | 118 ft | 25 kts | 249° |
| 2026-05-05 23:58 | -43.21170 | -65.27617 | 117 ft | 23 kts | 272° |
| 2026-05-05 23:58 | -43.21157 | -65.27797 | 119 ft | 15 kts | 278° |
| 2026-05-05 23:58 | -43.21143 | -65.27923 | 119 ft | 7 kts | 278° |
| 2026-05-05 23:59 | -43.21135 | -65.27990 | 115 ft | 7 kts | 284° |
| 2026-05-05 23:59 | -43.21114 | -65.28050 | 118 ft | 7 kts | 306° |
| 2026-05-05 23:59 | -43.21074 | -65.28085 | 117 ft | 8 kts | 339° |
| 2026-05-05 23:59 | -43.21016 | -65.28118 | 117 ft | 9 kts | 327° |
| 2026-05-06 00:00 | -43.20990 | -65.28165 | 118 ft | 5 kts | 301° |
| 2026-05-06 00:00 | -43.20981 | -65.28188 | 118 ft | 0 kts | 300° |